Humberston, United Kingdom
Current Conditions -  °F | °C
As of 10:50 AM on Wednesday 26 Nov 2014 (Local Time) from EGXS Reporting Station
Broken Clouds Broken Clouds  
Wind Chill: 39°   Ceiling: 4400
Heat Index: 46°   Visibility: 2.7mi
Dew Point: 45°   Wind: 21mph
Humidity: 93%   Direction: 100°E
Pressure: 29.91"   Gusts: NA
Location:  53.53°N, 0.02°W
Report Text: EGXS 261050Z AUTO 10018KT 4400 // SCT024/// BKN044/// 08/07 Q1013
Loading
Personal Weather Stations






























Interactive Weather Map New forecast layout! Learn more

10-Day Weather Forecast

Advertisements
Track Severe Weather on mobile